This is the latest recevied weather packets stored in our database for station/object IZ1RFL-3. If no packets are shown the sender has not sent any weather packets the latest 10 day(s).
| Time | Temp. | Humidity | Pressure | Rain* | Wind** | Luminosity | Snow |
|---|---|---|---|---|---|---|---|
| 1777566662 | 17.78° C | 41% | 1023.5 hPa | - | - | - | - |
| 1777565762 | 18.33° C | 41% | 1023.6 hPa | - | - | - | - |
| 1777564861 | 18.33° C | 40% | 1023.5 hPa | - | - | - | - |
| 1777563961 | 17.78° C | 41% | 1023.5 hPa | - | - | - | - |
| 1777563062 | 18.33° C | 40% | 1023.7 hPa | - | - | - | - |
| 1777562161 | 18.33° C | 39% | 1023.7 hPa | - | - | - | - |
| 1777561261 | 17.78° C | 40% | 1023.8 hPa | - | - | - | - |
| 1777560361 | 18.33° C | 39% | 1023.9 hPa | - | - | - | - |
| 1777559461 | 17.78° C | 42% | 1024.1 hPa | - | - | - | - |
| 1777558561 | 17.78° C | 42% | 1024.3 hPa | - | - | - | - |
| 1777557661 | 17.78° C | 42% | 1024.5 hPa | - | - | - | - |
| 1777556761 | 18.33° C | 43% | 1024.6 hPa | - | - | - | - |
| 1777555861 | 17.78° C | 43% | 1024.7 hPa | - | - | - | - |
| 1777554961 | 17.78° C | 44% | 1024.9 hPa | - | - | - | - |
| 1777554061 | 17.22° C | 46% | 1025.1 hPa | - | - | - | - |
| 1777553161 | 17.78° C | 44% | 1025.2 hPa | - | - | - | - |
| 1777552261 | 16.11° C | 48% | 1025.3 hPa | - | - | - | - |
| 1777551361 | 16.11° C | 50% | 1025.4 hPa | - | - | - | - |
| 1777550461 | 16.11° C | 50% | 1025.6 hPa | - | - | - | - |
| 1777549561 | 15.56° C | 51% | 1025.6 hPa | - | - | - | - |
| 1777548661 | 15.56° C | 52% | 1025.5 hPa | - | - | - | - |
| 1777547761 | 16.11° C | 51% | 1025.6 hPa | - | - | - | - |
| 1777546861 | 15.56° C | 51% | 1025.5 hPa | - | - | - | - |
| 1777545961 | 15.56° C | 53% | 1025.5 hPa | - | - | - | - |
| 1777545061 | 15.56° C | 51% | 1025.5 hPa | - | - | - | - |
* Rain since midnight (hover to see other rain measurements)
** Current wind speed in m/s (hover to see current wind gust speed)